Time;durP1;ratioP1;P1;durP2;ratioP2;P2;SDS_P1;SDS_P2;PMS_P1;PMS_P2;Temp;Humidity;BMP_temperature;BMP_pressure;BME280_temperature;BME280_humidity;BME280_pressure;Samples;Min_cycle;Max_cycle;Signal;HPM_P1;HPM_P2
2022/09/12 00:01:16;;;;;;;;;;;;;;;9.79;100.00;98620.70;2242960;78;20130;-57
2022/09/12 00:04:18;;;;;;;;;;;;;;;9.76;100.00;98619.10;2237636;79;20091;-57
2022/09/12 00:07:20;;;;;;;;;;;;;;;9.78;100.00;98626.39;2243910;79;20401;-58
2022/09/12 00:10:21;;;;;;;;;;;;;;;9.73;100.00;98628.46;2242195;78;20087;-57
2022/09/12 00:13:22;;;;;;;;;;;;;;;9.82;100.00;98621.81;2243183;79;20146;-58
2022/09/12 00:16:24;;;;;;;;;;;;;;;9.72;100.00;98622.84;2237727;78;20150;-58
2022/09/12 00:19:26;;;;;;;;;;;;;;;9.70;100.00;98632.58;2239544;79;20125;-58
2022/09/12 00:22:27;;;;;;;;;;;;;;;9.63;100.00;98626.86;2240275;79;20389;-57
2022/09/12 00:25:30;;;;;;;;;;;;;;;9.65;100.00;98626.28;2241602;79;20091;-57
2022/09/12 00:28:31;;;;;;;;;;;;;;;9.67;100.00;98623.13;2242763;79;20094;-57
2022/09/12 00:31:32;;;;;;;;;;;;;;;9.64;100.00;98626.38;2246074;78;20412;-58
2022/09/12 00:34:34;;;;;;;;;;;;;;;9.59;100.00;98624.05;2237093;79;20120;-58
2022/09/12 00:37:35;;;;;;;;;;;;;;;9.61;100.00;98623.95;2227642;78;20102;-58
2022/09/12 00:40:37;;;;;;;;;;;;;;;9.59;100.00;98627.14;2246863;78;20101;-58
2022/09/12 00:43:38;;;;;;;;;;;;;;;9.64;100.00;98621.14;2244921;78;20090;-58
2022/09/12 00:46:40;;;;;;;;;;;;;;;9.56;100.00;98619.48;2244854;78;20404;-57
2022/09/12 00:49:42;;;;;;;;;;;;;;;9.54;100.00;98615.64;2237043;79;20101;-59
2022/09/12 00:52:43;;;;;;;;;;;;;;;9.51;100.00;98614.49;2242800;78;20101;-57
2022/09/12 00:55:45;;;;;;;;;;;;;;;9.54;100.00;98614.34;2246166;78;20123;-57
2022/09/12 00:58:46;;;;;;;;;;;;;;;9.56;100.00;98622.09;2200043;80;20159;-58
2022/09/12 01:01:47;;;;;;;;;;;;;;;9.59;100.00;98616.19;2238171;79;20377;-57
2022/09/12 01:04:50;;;;;;;;;;;;;;;9.56;100.00;98616.86;2251199;78;20105;-57
2022/09/12 01:07:52;;;;;;;;;;;;;;;9.55;100.00;98618.61;2202680;80;20137;-57
2022/09/12 01:10:53;;;;;;;;;;;;;;;9.52;100.00;98620.98;2197840;80;20387;-58
2022/09/12 01:13:55;;;;;;;;;;;;;;;9.50;100.00;98621.52;2196957;81;20097;-58
2022/09/12 01:16:57;;;;;;;;;;;;;;;9.45;100.00;98622.72;2200267;80;20100;-57
2022/09/12 01:19:58;;;;;;;;;;;;;;;9.52;100.00;98624.91;2196874;80;20399;-58
2022/09/12 01:22:59;;;;;;;;;;;;;;;9.50;100.00;98621.99;2199642;80;20128;-58
2022/09/12 01:26:01;;;;;;;;;;;;;;;9.33;100.00;98617.28;2200007;80;20093;-58
2022/09/12 01:29:02;;;;;;;;;;;;;;;9.43;100.00;98616.75;2201684;80;20160;-57
2022/09/12 01:32:04;;;;;;;;;;;;;;;9.34;100.00;98611.59;2190352;80;20096;-57
2022/09/12 01:35:05;;;;;;;;;;;;;;;9.33;100.00;98621.20;2199975;81;20109;-58
2022/09/12 01:38:07;;;;;;;;;;;;;;;9.30;100.00;98606.16;2246877;78;20091;-58
2022/09/12 01:41:08;;;;;;;;;;;;;;;9.32;100.00;98613.45;2245949;78;20094;-57
2022/09/12 01:44:11;;;;;;;;;;;;;;;9.26;100.00;98608.11;2200915;81;20101;-58
2022/09/12 01:47:12;;;;;;;;;;;;;;;9.32;100.00;98608.21;2240155;79;20118;-58
2022/09/12 01:50:14;;;;;;;;;;;;;;;9.43;100.00;98607.59;2246224;78;20125;-58
2022/09/12 01:53:15;;;;;;;;;;;;;;;9.29;100.00;98613.16;2200634;80;20097;-57
2022/09/12 01:56:21;;;;;;;;;;;;;;;9.23;100.00;98615.31;2242501;78;20138;-56
2022/09/12 01:59:20;;;;;;;;;;;;;;;9.21;100.00;98615.84;2218810;79;20094;-57
2022/09/12 02:02:22;;;;;;;;;;;;;;;9.22;100.00;98616.23;2200090;80;20104;-56
2022/09/12 02:05:24;;;;;;;;;;;;;;;9.13;100.00;98613.22;2195971;81;20438;-56
2022/09/12 02:08:26;;;;;;;;;;;;;;;9.10;100.00;98621.25;2242192;78;20121;-56
2022/09/12 02:11:27;;;;;;;;;;;;;;;9.10;100.00;98613.87;2241567;79;20122;-56
2022/09/12 02:14:29;;;;;;;;;;;;;;;9.15;100.00;98627.52;2244686;78;20106;-56
2022/09/12 02:17:30;;;;;;;;;;;;;;;9.16;100.00;98628.73;2198144;80;20093;-57
2022/09/12 02:20:32;;;;;;;;;;;;;;;9.20;100.00;98622.87;2199738;80;20411;-58
2022/09/12 02:23:33;;;;;;;;;;;;;;;9.14;100.00;98631.92;2200328;81;20097;-57
2022/09/12 02:26:34;;;;;;;;;;;;;;;9.09;100.00;98628.71;2200708;81;20141;-58
2022/09/12 02:29:36;;;;;;;;;;;;;;;9.08;100.00;98629.67;2199364;80;20108;-58
2022/09/12 02:32:38;;;;;;;;;;;;;;;9.14;100.00;98624.06;2199910;80;20108;-58
2022/09/12 02:35:40;;;;;;;;;;;;;;;9.14;100.00;98621.92;2195901;80;20124;-56
2022/09/12 02:38:41;;;;;;;;;;;;;;;9.15;100.00;98624.90;2202150;80;20097;-57
2022/09/12 02:41:42;;;;;;;;;;;;;;;9.24;100.00;98628.30;2250585;78;20158;-58
2022/09/12 02:44:44;;;;;;;;;;;;;;;9.17;100.00;98632.21;2247923;77;20107;-58
2022/09/12 02:47:45;;;;;;;;;;;;;;;9.22;100.00;98631.94;2200341;80;20180;-57
2022/09/12 02:50:47;;;;;;;;;;;;;;;9.18;100.00;98624.27;2196695;81;20389;-58
2022/09/12 02:53:48;;;;;;;;;;;;;;;9.06;100.00;98625.45;2200504;80;20172;-58
2022/09/12 02:56:49;;;;;;;;;;;;;;;9.08;100.00;98629.67;2248039;78;20150;-57
2022/09/12 02:59:51;;;;;;;;;;;;;;;9.08;100.00;98628.36;2244840;78;20098;-58
2022/09/12 03:02:52;;;;;;;;;;;;;;;9.08;100.00;98628.80;2245396;78;20106;-58
2022/09/12 03:05:54;;;;;;;;;;;;;;;9.08;100.00;98626.19;2243135;78;20385;-58
2022/09/12 03:08:55;;;;;;;;;;;;;;;9.19;100.00;98627.72;2199101;80;20124;-58
2022/09/12 03:11:57;;;;;;;;;;;;;;;9.30;100.00;98629.72;2249910;78;20105;-57
2022/09/12 03:15:00;;;;;;;;;;;;;;;9.34;100.00;98631.23;2248869;78;20099;-57
2022/09/12 03:18:01;;;;;;;;;;;;;;;9.34;100.00;98633.37;2198974;81;20395;-57
2022/09/12 03:21:03;;;;;;;;;;;;;;;9.32;100.00;98636.55;2199232;81;20097;-57
2022/09/12 03:24:04;;;;;;;;;;;;;;;9.30;100.00;98634.48;2201112;80;20379;-57
2022/09/12 03:27:06;;;;;;;;;;;;;;;9.38;100.00;98637.11;2192605;80;20105;-57
2022/09/12 03:30:09;;;;;;;;;;;;;;;9.38;100.00;98645.83;2225632;78;20099;-57
2022/09/12 03:33:11;;;;;;;;;;;;;;;9.35;100.00;98644.67;2201283;80;20101;-58
2022/09/12 03:36:12;;;;;;;;;;;;;;;9.29;100.00;98656.81;2199498;80;20204;-57
2022/09/12 03:39:14;;;;;;;;;;;;;;;9.30;100.00;98655.89;2245781;78;20393;-58
2022/09/12 03:42:15;;;;;;;;;;;;;;;9.34;100.00;98660.02;2192886;80;20096;-57
2022/09/12 03:45:17;;;;;;;;;;;;;;;9.39;100.00;98657.13;2202798;80;20490;-57
2022/09/12 03:48:18;;;;;;;;;;;;;;;9.38;100.00;98661.98;2200712;80;20105;-57
2022/09/12 03:51:20;;;;;;;;;;;;;;;9.34;100.00;98667.39;2206259;79;20096;-57
2022/09/12 03:54:21;;;;;;;;;;;;;;;9.46;100.00;98663.69;2202700;80;20123;-57
2022/09/12 03:57:22;;;;;;;;;;;;;;;9.43;100.00;98677.80;2200539;79;20109;-58
2022/09/12 04:00:24;;;;;;;;;;;;;;;9.36;100.00;98680.39;2204516;80;20450;-57
2022/09/12 04:03:26;;;;;;;;;;;;;;;9.37;100.00;98669.00;2204795;80;20110;-57
2022/09/12 04:06:27;;;;;;;;;;;;;;;9.36;100.00;98675.16;2206768;80;20105;-58
2022/09/12 04:09:29;;;;;;;;;;;;;;;9.41;100.00;98684.04;2185588;80;20399;-57
2022/09/12 04:12:30;;;;;;;;;;;;;;;9.43;100.00;98668.63;2203791;80;20131;-57
2022/09/12 04:15:32;;;;;;;;;;;;;;;9.45;100.00;98673.33;2202961;80;20379;-57
2022/09/12 04:18:33;;;;;;;;;;;;;;;9.34;100.00;98675.72;2207114;80;20104;-58
2022/09/12 04:21:35;;;;;;;;;;;;;;;9.29;100.00;98671.21;2200792;81;20128;-57
2022/09/12 04:24:36;;;;;;;;;;;;;;;9.27;100.00;98674.40;2203093;80;20108;-57
2022/09/12 04:27:38;;;;;;;;;;;;;;;9.24;100.00;98685.88;2203487;80;20097;-58
2022/09/12 04:30:39;;;;;;;;;;;;;;;9.31;100.00;98679.36;2205251;80;20400;-57
2022/09/12 04:33:41;;;;;;;;;;;;;;;9.30;100.00;98682.06;2205739;78;20109;-57
2022/09/12 04:36:42;;;;;;;;;;;;;;;9.35;100.00;98683.48;2203511;80;20116;-57
2022/09/12 04:39:44;;;;;;;;;;;;;;;9.32;100.00;98691.97;2208760;80;20403;-57
2022/09/12 04:42:46;;;;;;;;;;;;;;;9.32;100.00;98689.35;2210349;79;20178;-57
2022/09/12 04:45:47;;;;;;;;;;;;;;;9.34;100.00;98684.41;2204950;80;20132;-57
2022/09/12 04:48:49;;;;;;;;;;;;;;;9.39;100.00;98687.23;2206920;80;20132;-57
2022/09/12 04:51:50;;;;;;;;;;;;;;;9.45;100.00;98692.95;2207389;80;20202;-58
2022/09/12 04:54:52;;;;;;;;;;;;;;;9.47;100.00;98691.56;2207795;80;20568;-57
2022/09/12 04:57:53;;;;;;;;;;;;;;;9.46;100.00;98699.86;2204797;80;20135;-57
2022/09/12 05:00:55;;;;;;;;;;;;;;;9.49;100.00;98700.16;2206328;80;20136;-58
2022/09/12 05:03:56;;;;;;;;;;;;;;;9.53;100.00;98698.56;2207304;79;20108;-58
2022/09/12 05:06:58;;;;;;;;;;;;;;;9.59;100.00;98706.53;2211863;80;20093;-57
2022/09/12 05:10:00;;;;;;;;;;;;;;;9.70;100.00;98708.05;2198858;80;20124;-56
2022/09/12 05:13:01;;;;;;;;;;;;;;;9.77;100.00;98715.53;2202907;80;20084;-57
2022/09/12 05:16:03;;;;;;;;;;;;;;;9.75;100.00;98718.25;2206426;80;20113;-56
2022/09/12 05:19:05;;;;;;;;;;;;;;;9.79;100.00;98712.37;2202541;80;20402;-57
2022/09/12 05:22:06;;;;;;;;;;;;;;;9.79;100.00;98717.62;2206544;80;20112;-58
2022/09/12 05:25:08;;;;;;;;;;;;;;;9.83;100.00;98717.33;2204500;80;20097;-57
2022/09/12 05:28:09;;;;;;;;;;;;;;;9.88;100.00;98721.84;2206807;80;20097;-57
2022/09/12 05:31:11;;;;;;;;;;;;;;;9.87;100.00;98716.70;2200617;79;20128;-57
2022/09/12 05:34:12;;;;;;;;;;;;;;;9.89;100.00;98723.98;2205583;80;20504;-57
2022/09/12 05:37:14;;;;;;;;;;;;;;;9.94;100.00;98725.88;2205387;80;20085;-57
2022/09/12 05:40:18;;;;;;;;;;;;;;;10.00;100.00;98729.91;2209852;79;20107;-56
2022/09/12 05:43:19;;;;;;;;;;;;;;;10.11;100.00;98734.00;2143178;80;20103;-56
2022/09/12 05:46:21;;;;;;;;;;;;;;;10.17;100.00;98731.03;2203144;79;20104;-56
2022/09/12 05:49:23;;;;;;;;;;;;;;;10.12;100.00;98727.84;2212896;79;20280;-56
2022/09/12 05:52:25;;;;;;;;;;;;;;;10.17;100.00;98732.34;2206172;80;20154;-57
2022/09/12 05:55:26;;;;;;;;;;;;;;;10.31;100.00;98723.61;2201034;80;20426;-57
2022/09/12 05:58:28;;;;;;;;;;;;;;;10.40;100.00;98718.30;2197613;79;20100;-57
2022/09/12 06:01:29;;;;;;;;;;;;;;;10.48;100.00;98723.92;2206155;80;20178;-57
2022/09/12 06:04:31;;;;;;;;;;;;;;;10.54;100.00;98727.49;2204504;80;20094;-57
2022/09/12 06:07:32;;;;;;;;;;;;;;;10.61;100.00;98729.24;2205549;79;20108;-57
2022/09/12 06:10:34;;;;;;;;;;;;;;;10.73;100.00;98724.55;2207770;80;20421;-57
2022/09/12 06:13:36;;;;;;;;;;;;;;;10.95;100.00;98715.31;2203063;80;20124;-56
2022/09/12 06:16:38;;;;;;;;;;;;;;;11.15;100.00;98718.41;2198383;80;20193;-56
2022/09/12 06:19:39;;;;;;;;;;;;;;;11.02;100.00;98725.78;2200410;80;20411;-56
2022/09/12 06:22:41;;;;;;;;;;;;;;;11.04;100.00;98721.27;2202724;80;20097;-56
2022/09/12 06:25:42;;;;;;;;;;;;;;;10.96;100.00;98726.64;2203653;79;20120;-56
2022/09/12 06:28:44;;;;;;;;;;;;;;;11.00;100.00;98718.45;2196864;80;20092;-56
2022/09/12 06:31:45;;;;;;;;;;;;;;;11.00;100.00;98715.00;2190797;80;20109;-58
2022/09/12 06:34:47;;;;;;;;;;;;;;;11.13;100.00;98715.88;2200968;81;20096;-57
2022/09/12 06:37:48;;;;;;;;;;;;;;;11.37;100.00;98718.69;2203767;80;20113;-57
2022/09/12 06:40:50;;;;;;;;;;;;;;;11.46;100.00;98713.78;2202832;80;20100;-57
2022/09/12 06:43:52;;;;;;;;;;;;;;;11.53;100.00;98720.31;2208498;80;20132;-58
2022/09/12 06:46:53;;;;;;;;;;;;;;;11.57;100.00;98720.48;2199950;80;20121;-56
2022/09/12 06:49:55;;;;;;;;;;;;;;;11.62;100.00;98721.00;2204560;80;20399;-57
2022/09/12 06:52:57;;;;;;;;;;;;;;;11.63;100.00;98726.63;2207725;79;20089;-57
2022/09/12 06:55:58;;;;;;;;;;;;;;;11.73;100.00;98728.17;2202393;80;20104;-57
2022/09/12 06:58:59;;;;;;;;;;;;;;;11.84;100.00;98730.06;2202141;80;20151;-58
2022/09/12 07:02:01;;;;;;;;;;;;;;;11.96;100.00;98730.09;2203247;80;20159;-58
2022/09/12 07:05:03;;;;;;;;;;;;;;;12.04;100.00;98741.88;2204406;80;20456;-58
2022/09/12 07:08:04;;;;;;;;;;;;;;;12.12;100.00;98736.94;2202968;79;20116;-58
2022/09/12 07:11:06;;;;;;;;;;;;;;;12.27;100.00;98740.32;2203637;80;20109;-57
2022/09/12 07:14:08;;;;;;;;;;;;;;;12.44;100.00;98736.03;2200942;80;20104;-58
2022/09/12 07:17:11;;;;;;;;;;;;;;;12.58;100.00;98751.31;2204269;80;20104;-58
2022/09/12 07:20:12;;;;;;;;;;;;;;;12.47;100.00;98750.77;2199311;80;20136;-57
2022/09/12 07:23:14;;;;;;;;;;;;;;;12.61;100.00;98749.78;2202674;80;20085;-57
2022/09/12 07:26:15;;;;;;;;;;;;;;;12.74;100.00;98741.40;2201344;80;20108;-58
2022/09/12 07:29:17;;;;;;;;;;;;;;;12.91;100.00;98753.81;2206557;79;20104;-58
2022/09/12 07:32:18;;;;;;;;;;;;;;;13.00;100.00;98743.92;2203960;80;20088;-58
2022/09/12 07:35:20;;;;;;;;;;;;;;;13.14;100.00;98741.13;2201013;80;20133;-57
2022/09/12 07:38:21;;;;;;;;;;;;;;;13.36;100.00;98738.75;2202892;80;20096;-58
2022/09/12 07:41:23;;;;;;;;;;;;;;;13.37;100.00;98751.81;2206182;80;20128;-57
2022/09/12 07:44:25;;;;;;;;;;;;;;;13.31;100.00;98760.14;2203556;80;20458;-57
2022/09/12 07:47:27;;;;;;;;;;;;;;;13.29;100.00;98751.52;2204849;79;20089;-58
2022/09/12 07:50:29;;;;;;;;;;;;;;;13.43;100.00;98752.70;2241847;78;20208;-57
2022/09/12 07:53:30;;;;;;;;;;;;;;;13.62;100.00;98755.25;2247027;78;20495;-57
2022/09/12 07:56:32;;;;;;;;;;;;;;;13.92;100.00;98748.63;2200015;80;20176;-57
2022/09/12 07:59:33;;;;;;;;;;;;;;;14.30;100.00;98747.01;2197069;80;20128;-57
2022/09/12 08:02:35;;;;;;;;;;;;;;;14.27;100.00;98751.20;2202410;80;20105;-57
2022/09/12 08:05:37;;;;;;;;;;;;;;;14.12;100.00;98751.92;2200430;81;20104;-58
2022/09/12 08:08:39;;;;;;;;;;;;;;;14.27;100.00;98755.16;2200108;80;20093;-57
2022/09/12 08:11:40;;;;;;;;;;;;;;;14.50;100.00;98758.64;2246931;78;20106;-58
2022/09/12 08:14:41;;;;;;;;;;;;;;;14.87;100.00;98755.77;2238543;78;20103;-58
2022/09/12 08:17:43;;;;;;;;;;;;;;;14.73;100.00;98775.34;2243847;78;20141;-58
2022/09/12 08:20:45;;;;;;;;;;;;;;;14.70;100.00;98772.13;2201365;80;20121;-56
2022/09/12 08:23:47;;;;;;;;;;;;;;;14.78;100.00;98772.33;2198086;80;20483;-57
2022/09/12 08:26:48;;;;;;;;;;;;;;;15.29;100.00;98759.03;2245419;78;20086;-57
2022/09/12 08:29:50;;;;;;;;;;;;;;;15.11;100.00;98770.59;2212232;80;20148;-56
2022/09/12 08:32:52;;;;;;;;;;;;;;;15.00;100.00;98764.05;2200337;80;20474;-56
2022/09/12 08:35:53;;;;;;;;;;;;;;;15.04;100.00;98765.45;2205555;80;20132;-56
2022/09/12 08:38:54;;;;;;;;;;;;;;;15.13;100.00;98778.39;2205089;80;20108;-58
2022/09/12 08:41:56;;;;;;;;;;;;;;;15.06;100.00;98774.11;2210373;80;20096;-58
2022/09/12 08:44:57;;;;;;;;;;;;;;;15.11;100.00;98786.94;2201993;80;20108;-58
2022/09/12 08:47:59;;;;;;;;;;;;;;;15.08;100.00;98778.77;2198345;80;20198;-57
2022/09/12 08:51:00;;;;;;;;;;;;;;;15.56;100.00;98774.92;2195881;80;20109;-58
2022/09/12 08:54:02;;;;;;;;;;;;;;;16.07;100.00;98770.21;2205636;79;20151;-58
2022/09/12 08:57:03;;;;;;;;;;;;;;;16.05;100.00;98768.69;2205971;80;20136;-58
2022/09/12 09:00:05;;;;;;;;;;;;;;;16.01;100.00;98761.98;2204385;80;20214;-58
2022/09/12 09:03:07;;;;;;;;;;;;;;;16.06;100.00;98762.41;2200498;81;20123;-58
2022/09/12 09:06:09;;;;;;;;;;;;;;;16.40;100.00;98766.98;2203190;80;20149;-57
2022/09/12 09:09:10;;;;;;;;;;;;;;;16.78;100.00;98784.01;2209239;79;20131;-58
2022/09/12 09:12:12;;;;;;;;;;;;;;;17.19;100.00;98768.09;2204709;80;20140;-56
2022/09/12 09:15:20;;;;;;;;;;;;;;;17.34;100.00;98769.02;2202517;80;20104;-58
2022/09/12 09:18:17;;;;;;;;;;;;;;;16.76;100.00;98771.38;2169983;80;20109;-57
2022/09/12 09:21:18;;;;;;;;;;;;;;;16.21;100.00;98769.05;2200883;80;20104;-58
2022/09/12 09:24:20;;;;;;;;;;;;;;;16.21;100.00;98773.52;2205102;80;20965;-58
2022/09/12 09:27:22;;;;;;;;;;;;;;;16.67;100.00;98767.39;2207017;79;20097;-58
2022/09/12 09:30:24;;;;;;;;;;;;;;;16.88;100.00;98760.70;2203289;80;20108;-58
2022/09/12 09:33:26;;;;;;;;;;;;;;;16.58;100.00;98770.35;2196825;80;20120;-58
2022/09/12 09:36:28;;;;;;;;;;;;;;;16.32;100.00;98772.11;2202302;80;20089;-58
2022/09/12 09:39:29;;;;;;;;;;;;;;;16.01;100.00;98811.74;2203972;79;20198;-57
2022/09/12 09:42:31;;;;;;;;;;;;;;;16.31;100.00;98771.75;2204398;80;20105;-58
2022/09/12 09:45:32;;;;;;;;;;;;;;;16.92;100.00;98770.06;2206134;80;20155;-58
2022/09/12 09:48:34;;;;;;;;;;;;;;;17.05;100.00;98772.47;2201023;80;20395;-58
2022/09/12 09:51:36;;;;;;;;;;;;;;;16.81;100.00;98777.61;2206920;80;20162;-58
2022/09/12 09:54:37;;;;;;;;;;;;;;;16.42;100.00;98787.55;2207494;80;20112;-58
2022/09/12 09:57:40;;;;;;;;;;;;;;;16.60;100.00;98775.02;2207648;80;20108;-59
2022/09/12 10:03:46;;;;;;;;;;;;;;;17.28;100.00;98780.55;2184124;80;20101;-58
2022/09/12 10:06:48;;;;;;;;;;;;;;;17.22;100.00;98777.09;2202321;80;21546;-59
2022/09/12 10:09:51;;;;;;;;;;;;;;;17.40;100.00;98779.09;2207810;80;20104;-58
2022/09/12 10:12:53;;;;;;;;;;;;;;;17.45;100.00;98804.69;2210123;80;20096;-58
2022/09/12 10:15:55;;;;;;;;;;;;;;;16.99;100.00;98796.86;2204518;80;20419;-56
2022/09/12 10:18:56;;;;;;;;;;;;;;;17.19;100.00;98778.70;2206826;80;20081;-56
2022/09/12 10:21:59;;;;;;;;;;;;;;;17.37;100.00;98798.76;2205916;80;20101;-56
2022/09/12 10:25:01;;;;;;;;;;;;;;;17.12;100.00;98786.38;2204676;80;20497;-56
2022/09/12 10:28:03;;;;;;;;;;;;;;;17.47;100.00;98794.80;2209626;80;20127;-58
2022/09/12 10:31:04;;;;;;;;;;;;;;;17.65;100.00;98786.97;2206436;80;20097;-58
2022/09/12 10:34:06;;;;;;;;;;;;;;;17.75;100.00;98787.80;2205806;80;20108;-58
2022/09/12 10:37:09;;;;;;;;;;;;;;;17.55;100.00;98781.66;2188068;80;20116;-58
2022/09/12 10:40:11;;;;;;;;;;;;;;;17.31;100.00;98800.14;2205072;80;20395;-57
2022/09/12 10:43:12;;;;;;;;;;;;;;;17.43;100.00;98790.24;2203168;80;20108;-58
2022/09/12 10:46:14;;;;;;;;;;;;;;;17.89;100.00;98789.20;2207765;80;20393;-58
2022/09/12 10:49:16;;;;;;;;;;;;;;;17.82;100.00;98790.73;2207211;80;20148;-58
2022/09/12 10:52:17;;;;;;;;;;;;;;;17.95;100.00;98786.00;2202923;80;20115;-58
2022/09/12 10:55:19;;;;;;;;;;;;;;;18.26;100.00;98802.22;2204552;80;20446;-59
2022/09/12 10:58:21;;;;;;;;;;;;;;;18.32;100.00;98796.35;2203420;80;20105;-58
2022/09/12 11:01:22;;;;;;;;;;;;;;;18.42;100.00;98806.45;2201329;79;20131;-58
2022/09/12 11:04:24;;;;;;;;;;;;;;;18.36;100.00;98781.81;2203612;80;20218;-58
2022/09/12 11:07:25;;;;;;;;;;;;;;;18.46;100.00;98799.88;2205043;80;20116;-58
2022/09/12 11:10:27;;;;;;;;;;;;;;;18.50;100.00;98810.56;2201594;80;20434;-58
2022/09/12 11:13:28;;;;;;;;;;;;;;;18.59;100.00;98792.05;2205082;80;20101;-58
2022/09/12 11:16:30;;;;;;;;;;;;;;;18.78;100.00;98793.81;2203129;80;20108;-59
2022/09/12 11:19:31;;;;;;;;;;;;;;;18.52;100.00;98797.95;2207468;80;20084;-58
2022/09/12 11:22:33;;;;;;;;;;;;;;;18.61;100.00;98806.88;2202990;80;20112;-58
2022/09/12 11:25:35;;;;;;;;;;;;;;;18.59;100.00;98811.50;2200754;80;20387;-58
2022/09/12 11:28:37;;;;;;;;;;;;;;;18.67;100.00;98788.19;2200661;80;20104;-59
2022/09/12 11:31:38;;;;;;;;;;;;;;;18.95;100.00;98793.06;2203024;80;20109;-58
2022/09/12 11:34:41;;;;;;;;;;;;;;;18.85;100.00;98803.70;2201494;80;20399;-58
2022/09/12 11:37:42;;;;;;;;;;;;;;;19.19;100.00;98783.20;2201547;80;20126;-58
2022/09/12 11:40:44;;;;;;;;;;;;;;;19.06;100.00;98805.80;2209156;80;20152;-56
2022/09/12 11:43:46;;;;;;;;;;;;;;;18.78;100.00;98791.98;2202607;80;20419;-57
2022/09/12 11:46:49;;;;;;;;;;;;;;;18.71;100.00;98816.14;2176117;80;20125;-57
2022/09/12 11:49:51;;;;;;;;;;;;;;;18.70;100.00;98789.22;2207929;80;20101;-58
2022/09/12 11:52:52;;;;;;;;;;;;;;;19.09;100.00;98801.00;2207813;79;20132;-58
2022/09/12 11:55:54;;;;;;;;;;;;;;;19.07;100.00;98793.69;2203094;79;20099;-59
2022/09/12 11:58:55;;;;;;;;;;;;;;;19.30;100.00;98792.77;2200872;81;20103;-59
2022/09/12 12:01:58;;;;;;;;;;;;;;;19.14;100.00;98793.94;2204939;80;20404;-58
2022/09/12 12:05:00;;;;;;;;;;;;;;;19.07;100.00;98799.00;2199493;80;20124;-57
2022/09/12 12:08:01;;;;;;;;;;;;;;;18.85;100.00;98793.07;2210993;80;20120;-56
2022/09/12 12:11:03;;;;;;;;;;;;;;;18.95;100.00;98802.83;2192410;80;20123;-57
2022/09/12 12:14:05;;;;;;;;;;;;;;;19.11;100.00;98803.05;2191955;80;20193;-57
2022/09/12 12:17:07;;;;;;;;;;;;;;;18.89;100.00;98795.46;2205286;80;20205;-56
2022/09/12 12:20:08;;;;;;;;;;;;;;;18.43;100.00;98797.98;2206703;80;20492;-57
2022/09/12 12:23:10;;;;;;;;;;;;;;;18.63;100.00;98800.08;2205459;80;20109;-57
2022/09/12 12:26:11;;;;;;;;;;;;;;;19.06;100.00;98800.48;2196904;80;20132;-58
2022/09/12 12:29:13;;;;;;;;;;;;;;;18.97;100.00;98799.05;2208064;80;20508;-58
2022/09/12 12:32:14;;;;;;;;;;;;;;;18.79;100.00;98797.66;2207672;79;20159;-58
2022/09/12 12:35:17;;;;;;;;;;;;;;;18.53;100.00;98800.11;2207231;80;20104;-58
2022/09/12 12:38:18;;;;;;;;;;;;;;;18.07;100.00;98803.09;2204790;80;20430;-58
2022/09/12 12:41:20;;;;;;;;;;;;;;;17.97;100.00;98801.31;2204842;79;20089;-58
2022/09/12 12:44:22;;;;;;;;;;;;;;;17.92;100.00;98800.05;2208542;80;20187;-58
2022/09/12 12:47:24;;;;;;;;;;;;;;;17.95;100.00;98794.46;2205319;79;20105;-59
2022/09/12 12:50:26;;;;;;;;;;;;;;;18.46;100.00;98803.00;2203928;80;20174;-58
2022/09/12 12:53:29;;;;;;;;;;;;;;;19.03;100.00;98790.98;2201403;81;20154;-58
2022/09/12 12:56:31;;;;;;;;;;;;;;;19.22;100.00;98791.34;2204289;80;20112;-59
2022/09/12 12:59:33;;;;;;;;;;;;;;;19.55;100.00;98787.69;2200291;80;20105;-59
2022/09/12 13:02:34;;;;;;;;;;;;;;;19.62;100.00;98799.39;2204042;80;20097;-58
2022/09/12 13:05:36;;;;;;;;;;;;;;;19.03;100.00;98804.27;2204351;80;20124;-59
2022/09/12 13:08:37;;;;;;;;;;;;;;;18.76;100.00;98793.97;2209053;79;20108;-59
2022/09/12 13:11:39;;;;;;;;;;;;;;;18.79;100.00;98798.13;2207334;80;20128;-58
2022/09/12 13:14:40;;;;;;;;;;;;;;;18.93;100.00;98795.52;2205069;80;20089;-58
2022/09/12 13:17:42;;;;;;;;;;;;;;;18.79;100.00;98808.28;2203688;80;20128;-58
2022/09/12 13:20:43;;;;;;;;;;;;;;;18.84;100.00;98794.05;2197528;80;20420;-58
2022/09/12 13:23:46;;;;;;;;;;;;;;;19.34;100.00;98786.67;2201444;80;20108;-59
2022/09/12 13:26:48;;;;;;;;;;;;;;;19.68;100.00;98780.66;2207842;80;20096;-59
2022/09/12 13:29:50;;;;;;;;;;;;;;;19.53;98.05;98792.34;2200887;79;20214;-58
2022/09/12 13:32:51;;;;;;;;;;;;;;;19.18;100.00;98786.84;2199407;80;20376;-58
2022/09/12 13:35:53;;;;;;;;;;;;;;;19.20;100.00;98788.84;2203872;80;20108;-59
2022/09/12 13:38:55;;;;;;;;;;;;;;;19.48;100.00;98788.81;2235730;78;20082;-58
2022/09/12 13:41:57;;;;;;;;;;;;;;;19.38;98.80;98792.04;2244514;79;20126;-59
2022/09/12 13:44:59;;;;;;;;;;;;;;;19.30;97.53;98788.78;2200081;80;20109;-59
2022/09/12 13:48:00;;;;;;;;;;;;;;;19.39;94.70;98776.41;2244399;78;20393;-59
2022/09/12 13:51:02;;;;;;;;;;;;;;;19.55;100.00;98779.23;2201049;80;20156;-59
2022/09/12 13:54:04;;;;;;;;;;;;;;;19.46;96.80;98785.45;2193530;80;20113;-56
2022/09/12 13:57:06;;;;;;;;;;;;;;;19.50;96.47;98792.64;2198759;80;20420;-57
2022/09/12 14:00:07;;;;;;;;;;;;;;;19.47;97.16;98781.81;2198967;81;20104;-58
2022/09/12 14:06:15;;;;;;;;;;;;;;;19.53;96.89;98789.67;2221403;79;20106;-59
2022/09/12 14:09:16;;;;;;;;;;;;;;;19.54;95.74;98793.52;2236772;79;20374;-59
2022/09/12 14:12:19;;;;;;;;;;;;;;;19.84;100.00;98772.86;2241305;78;20103;-57
2022/09/12 14:15:23;;;;;;;;;;;;;;;19.95;97.74;98782.91;2199991;80;20169;-57
2022/09/12 14:18:24;;;;;;;;;;;;;;;19.94;97.91;98782.09;2179566;80;20097;-58
2022/09/12 14:21:27;;;;;;;;;;;;;;;19.93;98.65;98788.90;2200012;80;20465;-59
2022/09/12 14:24:30;;;;;;;;;;;;;;;20.03;98.05;98789.13;2200555;80;20395;-59
2022/09/12 14:27:33;;;;;;;;;;;;;;;20.15;97.58;98788.88;2198869;80;20443;-58
2022/09/12 14:30:35;;;;;;;;;;;;;;;20.16;96.42;98788.72;2247436;78;20409;-59
2022/09/12 14:33:37;;;;;;;;;;;;;;;19.85;98.14;98784.33;2242524;79;20122;-58
2022/09/12 14:36:38;;;;;;;;;;;;;;;19.81;94.51;98789.14;2199575;81;20097;-58
2022/09/12 14:39:40;;;;;;;;;;;;;;;19.95;93.78;98797.05;2249333;78;20157;-59
2022/09/12 14:42:42;;;;;;;;;;;;;;;19.90;91.69;98794.03;2248288;79;20188;-59
2022/09/12 14:45:43;;;;;;;;;;;;;;;19.67;91.77;98799.78;2198369;80;20447;-58
2022/09/12 14:48:45;;;;;;;;;;;;;;;19.31;92.26;98790.94;2195962;80;20145;-59
2022/09/12 14:51:47;;;;;;;;;;;;;;;18.63;92.01;98791.64;2245101;79;20188;-59
2022/09/12 14:54:48;;;;;;;;;;;;;;;18.58;94.13;98797.05;2245664;77;20094;-58
2022/09/12 14:57:50;;;;;;;;;;;;;;;18.77;90.68;98798.28;2246195;78;20095;-58
2022/09/12 15:00:52;;;;;;;;;;;;;;;19.01;91.97;98788.47;2238683;77;20381;-58
2022/09/12 15:03:53;;;;;;;;;;;;;;;19.17;93.36;98788.31;2196883;80;20132;-58
2022/09/12 15:06:55;;;;;;;;;;;;;;;19.38;94.23;98790.70;2198152;80;20240;-58
2022/09/12 15:09:57;;;;;;;;;;;;;;;18.99;91.19;98788.27;2201138;80;20140;-58
2022/09/12 15:12:59;;;;;;;;;;;;;;;18.64;94.59;98789.31;2243279;79;20102;-59
2022/09/12 15:16:00;;;;;;;;;;;;;;;18.38;94.25;98793.11;2185896;81;20101;-59
2022/09/12 15:19:02;;;;;;;;;;;;;;;18.53;95.50;98788.16;2207084;80;20147;-57
2022/09/12 15:22:03;;;;;;;;;;;;;;;18.74;96.42;98781.30;2210377;79;20125;-57
2022/09/12 15:25:05;;;;;;;;;;;;;;;19.36;95.75;98781.52;2206857;80;20156;-57
2022/09/12 15:28:07;;;;;;;;;;;;;;;21.01;87.19;98784.53;2204062;79;20120;-57
2022/09/12 15:31:08;;;;;;;;;;;;;;;22.47;83.63;98766.61;2201687;80;20097;-59
2022/09/12 15:34:10;;;;;;;;;;;;;;;22.86;78.58;98768.47;2206938;79;20097;-59
2022/09/12 15:37:11;;;;;;;;;;;;;;;22.08;79.45;98769.98;2204067;80;20194;-59
2022/09/12 15:40:12;;;;;;;;;;;;;;;21.28;77.78;98776.77;2207605;80;20100;-58
2022/09/12 15:43:14;;;;;;;;;;;;;;;21.59;76.02;98772.16;2215308;80;20121;-59